Time;durP1;ratioP1;P1;durP2;ratioP2;P2;SDS_P1;SDS_P2;PMS_P1;PMS_P2;Temp;Humidity;BMP_temperature;BMP_pressure;BME280_temperature;BME280_humidity;BME280_pressure;Samples;Min_cycle;Max_cycle;Signal;HPM_P1;HPM_P2
2021/03/19 00:01:24;;;;;;;5.30;4.15;;;;;;;;;;5052451;28;20205;-76
2021/03/19 00:03:50;;;;;;;4.47;3.33;;;;;;;;;;5051474;28;20197;-77
2021/03/19 00:06:16;;;;;;;6.97;4.60;;;;;;;;;;5047947;28;20189;-79
2021/03/19 00:08:43;;;;;;;5.00;3.85;;;;;;;;;;5052658;28;20165;-77
2021/03/19 00:11:09;;;;;;;4.97;3.95;;;;;;;;;;5049669;28;20177;-78
2021/03/19 00:13:35;;;;;;;3.75;3.35;;;;;;;;;;5050077;28;20233;-78
2021/03/19 00:16:01;;;;;;;4.60;3.90;;;;;;;;;;5051753;28;20653;-78
2021/03/19 00:18:27;;;;;;;4.85;3.72;;;;;;;;;;5052518;28;20661;-80
2021/03/19 00:20:53;;;;;;;4.93;3.72;;;;;;;;;;5055572;28;20568;-79
2021/03/19 00:23:19;;;;;;;4.80;4.05;;;;;;;;;;5071969;28;20187;-79
2021/03/19 00:25:45;;;;;;;5.25;4.28;;;;;;;;;;5060606;28;20172;-79
2021/03/19 00:28:15;;;;;;;8.02;4.28;;;;;;;;;;5059573;28;20177;-80
2021/03/19 00:30:44;;;;;;;5.97;3.55;;;;;;;;;;5056452;28;20177;-80
2021/03/19 00:33:10;;;;;;;4.00;3.50;;;;;;;;;;5071756;28;20172;-80
2021/03/19 00:35:36;;;;;;;3.83;3.42;;;;;;;;;;5054968;28;20205;-78
2021/03/19 00:38:03;;;;;;;4.00;3.53;;;;;;;;;;5056341;28;20185;-79
2021/03/19 00:40:30;;;;;;;5.50;4.03;;;;;;;;;;5045935;28;20178;-79
2021/03/19 00:42:56;;;;;;;5.10;3.50;;;;;;;;;;5053595;28;20515;-80
2021/03/19 00:45:23;;;;;;;4.15;3.75;;;;;;;;;;5056145;28;20193;-78
2021/03/19 00:47:51;;;;;;;5.00;3.70;;;;;;;;;;5051154;28;20173;-79
2021/03/19 00:50:18;;;;;;;4.18;3.13;;;;;;;;;;5036144;28;20578;-79
2021/03/19 00:52:44;;;;;;;4.70;2.78;;;;;;;;;;5054843;28;20173;-79
2021/03/19 00:55:12;;;;;;;4.45;3.38;;;;;;;;;;5047347;28;20186;-78
2021/03/19 00:57:38;;;;;;;4.78;3.47;;;;;;;;;;5054102;28;20177;-78
2021/03/19 01:00:09;;;;;;;4.90;3.65;;;;;;;;;;5055298;28;20169;-78
2021/03/19 01:02:35;;;;;;;4.72;3.58;;;;;;;;;;5055478;28;20562;-79
2021/03/19 01:05:01;;;;;;;4.78;4.20;;;;;;;;;;5057273;28;20291;-80
2021/03/19 01:07:27;;;;;;;5.50;3.45;;;;;;;;;;5051864;28;20176;-78
2021/03/19 01:09:53;;;;;;;3.58;2.90;;;;;;;;;;5054002;28;20188;-78
2021/03/19 01:12:19;;;;;;;4.20;3.80;;;;;;;;;;5055358;28;20262;-78
2021/03/19 01:14:45;;;;;;;5.40;3.58;;;;;;;;;;5055098;28;20645;-76
2021/03/19 01:17:11;;;;;;;5.03;3.80;;;;;;;;;;5054586;28;20181;-78
2021/03/19 01:19:37;;;;;;;5.78;3.63;;;;;;;;;;5054693;28;20234;-76
2021/03/19 01:22:03;;;;;;;4.00;3.60;;;;;;;;;;5041222;28;20204;-78
2021/03/19 01:24:29;;;;;;;3.90;3.50;;;;;;;;;;5050497;28;20208;-78
2021/03/19 01:26:55;;;;;;;6.20;3.67;;;;;;;;;;5063261;28;20256;-77
2021/03/19 01:29:21;;;;;;;7.40;3.53;;;;;;;;;;5054469;28;20188;-77
2021/03/19 01:31:47;;;;;;;4.50;3.25;;;;;;;;;;5055081;28;20243;-77
2021/03/19 01:34:14;;;;;;;5.70;3.70;;;;;;;;;;5050396;28;20547;-77
2021/03/19 01:36:40;;;;;;;4.78;3.70;;;;;;;;;;5060713;28;20180;-78
2021/03/19 01:39:06;;;;;;;3.85;3.30;;;;;;;;;;5057763;28;20176;-76
2021/03/19 01:41:32;;;;;;;4.80;3.42;;;;;;;;;;5054039;28;20200;-79
2021/03/19 01:43:58;;;;;;;4.03;3.63;;;;;;;;;;5067334;28;20199;-78
2021/03/19 01:46:43;;;;;;;3.70;3.35;;;;;;;;;;5056109;28;20177;-78
2021/03/19 01:49:28;;;;;;;5.10;3.88;;;;;;;;;;5046467;28;20180;-77
2021/03/19 01:52:13;;;;;;;5.15;3.63;;;;;;;;;;5053354;28;20259;-77
2021/03/19 01:54:57;;;;;;;5.32;3.33;;;;;;;;;;5041695;28;20565;-77
2021/03/19 01:57:42;;;;;;;4.75;3.50;;;;;;;;;;5046165;28;20191;-78
2021/03/19 02:00:27;;;;;;;4.10;3.42;;;;;;;;;;5055696;28;20210;-78
2021/03/19 02:03:11;;;;;;;4.78;3.47;;;;;;;;;;5050255;28;20192;-78
2021/03/19 02:05:56;;;;;;;9.48;3.22;;;;;;;;;;5055279;28;20299;-77
2021/03/19 02:08:40;;;;;;;4.40;4.00;;;;;;;;;;5053489;28;20185;-77
2021/03/19 02:11:25;;;;;;;5.90;4.43;;;;;;;;;;5047966;28;20263;-76
2021/03/19 02:14:10;;;;;;;3.95;3.55;;;;;;;;;;5053538;28;20189;-77
2021/03/19 02:16:54;;;;;;;4.20;3.55;;;;;;;;;;5067858;28;20237;-78
2021/03/19 02:19:39;;;;;;;4.65;3.70;;;;;;;;;;5056919;28;20223;-79
2021/03/19 02:22:23;;;;;;;6.50;4.03;;;;;;;;;;5071814;28;20200;-78
2021/03/19 02:25:08;;;;;;;4.97;3.65;;;;;;;;;;5068080;28;20672;-78
2021/03/19 02:27:52;;;;;;;3.72;3.42;;;;;;;;;;5052718;28;20178;-78
2021/03/19 02:30:37;;;;;;;4.55;3.60;;;;;;;;;;5056391;28;20657;-78
2021/03/19 02:33:03;;;;;;;6.60;4.20;;;;;;;;;;5043317;28;20524;-78
2021/03/19 02:35:29;;;;;;;7.35;4.20;;;;;;;;;;5058843;28;20283;-78
2021/03/19 02:37:55;;;;;;;5.32;3.90;;;;;;;;;;5053170;28;20173;-78
2021/03/19 02:40:23;;;;;;;4.38;3.47;;;;;;;;;;5048642;28;20187;-78
2021/03/19 02:42:49;;;;;;;4.72;3.83;;;;;;;;;;5050931;28;20207;-78
2021/03/19 02:45:18;;;;;;;4.72;4.00;;;;;;;;;;5042594;28;20246;-78
2021/03/19 02:47:44;;;;;;;4.90;4.22;;;;;;;;;;5051702;28;20173;-78
2021/03/19 02:50:11;;;;;;;4.25;3.85;;;;;;;;;;5051010;28;20177;-77
2021/03/19 02:52:39;;;;;;;4.28;3.72;;;;;;;;;;5052761;28;20181;-78
2021/03/19 02:55:07;;;;;;;4.65;3.78;;;;;;;;;;5045796;28;20201;-79
2021/03/19 02:57:33;;;;;;;4.57;3.78;;;;;;;;;;5051912;28;20271;-78
2021/03/19 03:00:02;;;;;;;4.82;4.03;;;;;;;;;;5045959;28;20185;-78
2021/03/19 03:02:28;;;;;;;5.15;3.90;;;;;;;;;;5061936;28;20198;-78
2021/03/19 03:04:54;;;;;;;5.40;4.25;;;;;;;;;;5042440;28;20212;-78
2021/03/19 03:07:21;;;;;;;4.40;3.50;;;;;;;;;;5052463;28;20692;-78
2021/03/19 03:09:48;;;;;;;5.05;4.30;;;;;;;;;;5044941;28;20174;-78
2021/03/19 03:12:14;;;;;;;4.68;4.05;;;;;;;;;;5052017;28;20545;-77
2021/03/19 03:14:40;;;;;;;5.50;4.60;;;;;;;;;;5052734;28;20550;-78
2021/03/19 03:17:06;;;;;;;5.10;3.92;;;;;;;;;;5053023;28;20518;-79
2021/03/19 03:19:32;;;;;;;5.72;4.13;;;;;;;;;;5046757;28;20185;-77
2021/03/19 03:21:58;;;;;;;5.10;3.92;;;;;;;;;;5054271;28;20203;-78
2021/03/19 03:24:26;;;;;;;5.38;4.00;;;;;;;;;;5072814;28;20196;-76
2021/03/19 03:26:52;;;;;;;5.78;4.10;;;;;;;;;;5055168;28;20177;-78
2021/03/19 03:29:20;;;;;;;4.88;4.38;;;;;;;;;;5047964;28;20533;-78
2021/03/19 03:31:46;;;;;;;5.07;4.22;;;;;;;;;;5051873;28;20185;-78
2021/03/19 03:34:13;;;;;;;8.48;4.18;;;;;;;;;;5046497;28;20275;-79
2021/03/19 03:36:40;;;;;;;6.40;3.80;;;;;;;;;;5049239;28;20187;-78
2021/03/19 03:39:07;;;;;;;6.20;4.40;;;;;;;;;;5049809;28;20173;-79
2021/03/19 03:41:33;;;;;;;5.78;4.75;;;;;;;;;;5055332;28;20292;-78
2021/03/19 03:43:59;;;;;;;5.75;4.70;;;;;;;;;;5052495;28;20192;-77
2021/03/19 03:46:26;;;;;;;5.78;4.55;;;;;;;;;;5052803;28;20184;-76
2021/03/19 03:48:52;;;;;;;6.50;5.75;;;;;;;;;;5052346;28;20184;-77
2021/03/19 03:51:18;;;;;;;6.80;5.15;;;;;;;;;;5044372;28;20180;-76
2021/03/19 03:53:44;;;;;;;8.05;5.32;;;;;;;;;;5052143;28;20236;-78
2021/03/19 03:56:12;;;;;;;8.43;6.18;;;;;;;;;;5052047;28;20189;-77
2021/03/19 03:58:38;;;;;;;6.72;5.90;;;;;;;;;;5065679;28;20187;-78
2021/03/19 04:01:05;;;;;;;6.45;5.82;;;;;;;;;;5053671;28;20193;-78
2021/03/19 04:03:31;;;;;;;10.10;6.38;;;;;;;;;;5064507;28;20180;-77
2021/03/19 04:05:57;;;;;;;9.18;5.63;;;;;;;;;;5068821;28;20189;-76
2021/03/19 04:08:25;;;;;;;7.40;6.45;;;;;;;;;;5056907;28;20181;-78
2021/03/19 04:10:51;;;;;;;12.40;6.68;;;;;;;;;;5057791;28;20239;-78
2021/03/19 04:13:17;;;;;;;10.35;6.80;;;;;;;;;;5054445;28;20673;-77
2021/03/19 04:15:44;;;;;;;8.32;6.75;;;;;;;;;;5064576;28;20287;-77
2021/03/19 04:18:11;;;;;;;8.93;6.80;;;;;;;;;;5076889;28;20632;-78
2021/03/19 04:20:37;;;;;;;6.43;5.68;;;;;;;;;;5067119;28;20230;-77
2021/03/19 04:23:04;;;;;;;8.00;7.20;;;;;;;;;;5056069;28;20184;-78
2021/03/19 04:25:30;;;;;;;7.82;6.95;;;;;;;;;;5055892;28;20200;-77
2021/03/19 04:27:58;;;;;;;9.93;7.20;;;;;;;;;;5067650;28;20231;-76
2021/03/19 04:30:26;;;;;;;10.02;8.32;;;;;;;;;;5056388;28;20184;-77
2021/03/19 04:32:53;;;;;;;8.25;7.20;;;;;;;;;;5055120;28;20530;-77
2021/03/19 04:35:20;;;;;;;8.65;7.50;;;;;;;;;;5048985;28;20200;-77
2021/03/19 04:37:46;;;;;;;8.43;7.63;;;;;;;;;;5064462;28;20218;-78
2021/03/19 04:40:13;;;;;;;9.95;7.35;;;;;;;;;;5055372;28;20181;-77
2021/03/19 04:42:39;;;;;;;9.00;7.18;;;;;;;;;;5051416;28;20201;-77
2021/03/19 04:45:06;;;;;;;7.65;6.93;;;;;;;;;;5055442;28;20207;-77
2021/03/19 04:47:32;;;;;;;10.18;7.45;;;;;;;;;;5055882;28;20177;-77
2021/03/19 04:49:59;;;;;;;7.50;6.63;;;;;;;;;;5053723;28;20322;-77
2021/03/19 04:52:25;;;;;;;9.07;7.20;;;;;;;;;;5047152;28;20537;-77
2021/03/19 04:54:51;;;;;;;8.40;7.25;;;;;;;;;;5055430;28;20205;-76
2021/03/19 04:57:17;;;;;;;13.23;7.38;;;;;;;;;;5054951;28;20527;-78
2021/03/19 04:59:43;;;;;;;11.38;7.45;;;;;;;;;;5055471;28;20197;-77
2021/03/19 05:02:09;;;;;;;11.82;7.40;;;;;;;;;;5041956;28;20560;-78
2021/03/19 05:04:35;;;;;;;8.07;6.05;;;;;;;;;;5054048;28;20291;-78
2021/03/19 05:07:04;;;;;;;8.75;6.50;;;;;;;;;;5054234;28;20630;-77
2021/03/19 05:09:31;;;;;;;7.57;6.78;;;;;;;;;;5054553;28;20185;-79
2021/03/19 05:11:57;;;;;;;8.77;7.60;;;;;;;;;;5039457;28;20193;-77
2021/03/19 05:14:23;;;;;;;8.27;7.47;;;;;;;;;;5062192;28;20289;-78
2021/03/19 05:16:50;;;;;;;9.40;8.20;;;;;;;;;;5055180;28;20177;-76
2021/03/19 05:19:17;;;;;;;8.82;7.20;;;;;;;;;;5055349;28;20238;-77
2021/03/19 05:21:43;;;;;;;10.48;7.95;;;;;;;;;;5054619;28;20262;-77
2021/03/19 05:24:09;;;;;;;10.48;8.20;;;;;;;;;;5043457;28;20240;-77
2021/03/19 05:26:35;;;;;;;12.80;8.75;;;;;;;;;;5062957;28;20686;-77
2021/03/19 05:29:01;;;;;;;12.18;9.18;;;;;;;;;;5048851;28;20652;-79
2021/03/19 05:31:28;;;;;;;13.93;7.70;;;;;;;;;;5070014;28;20181;-80
2021/03/19 05:33:55;;;;;;;11.88;8.25;;;;;;;;;;5036792;28;20202;-80
2021/03/19 05:36:25;;;;;;;9.63;7.80;;;;;;;;;;5059026;28;20184;-79
2021/03/19 05:38:52;;;;;;;10.85;8.05;;;;;;;;;;5047689;28;20199;-77
2021/03/19 05:41:19;;;;;;;10.15;8.55;;;;;;;;;;5051582;28;20660;-78
2021/03/19 05:43:53;;;;;;;8.65;7.72;;;;;;;;;;5050439;28;20194;-77
2021/03/19 05:46:24;;;;;;;10.45;8.52;;;;;;;;;;5057652;28;20175;-80
2021/03/19 05:49:22;;;;;;;11.88;9.15;;;;;;;;;;5074864;28;20222;-77
2021/03/19 05:51:48;;;;;;;13.35;9.40;;;;;;;;;;5037953;28;20200;-79
2021/03/19 05:54:23;;;;;;;17.83;8.93;;;;;;;;;;5057839;28;20189;-78
2021/03/19 05:56:56;;;;;;;15.85;10.00;;;;;;;;;;5057015;28;20263;-78
2021/03/19 05:59:22;;;;;;;11.13;8.85;;;;;;;;;;5056412;28;20185;-79
2021/03/19 06:01:48;;;;;;;12.68;9.60;;;;;;;;;;5054110;28;20233;-77
2021/03/19 06:04:19;;;;;;;18.27;10.73;;;;;;;;;;5059904;28;20203;-79
2021/03/19 06:06:55;;;;;;;12.07;8.90;;;;;;;;;;5066398;28;20642;-78
2021/03/19 06:09:23;;;;;;;11.77;8.57;;;;;;;;;;5074569;28;20187;-78
2021/03/19 06:11:49;;;;;;;13.95;9.48;;;;;;;;;;5049176;28;20185;-76
2021/03/19 06:14:17;;;;;;;12.88;9.70;;;;;;;;;;5053305;28;20204;-77
2021/03/19 06:16:47;;;;;;;18.58;10.27;;;;;;;;;;5047525;28;20233;-79
2021/03/19 06:19:25;;;;;;;12.85;9.35;;;;;;;;;;5043747;28;20177;-78
2021/03/19 06:22:02;;;;;;;11.40;9.15;;;;;;;;;;5054134;28;20197;-78
2021/03/19 06:24:28;;;;;;;10.68;9.35;;;;;;;;;;5064278;28;20220;-79
2021/03/19 06:27:10;;;;;;;14.13;10.30;;;;;;;;;;5054878;28;20522;-78
2021/03/19 06:29:48;;;;;;;12.35;8.52;;;;;;;;;;5052447;28;20227;-79
2021/03/19 06:32:20;;;;;;;10.38;8.98;;;;;;;;;;5067360;28;20179;-78
2021/03/19 06:35:01;;;;;;;11.02;8.60;;;;;;;;;;5060513;28;20588;-78
2021/03/19 06:37:29;;;;;;;10.85;8.77;;;;;;;;;;5053877;28;20188;-79
2021/03/19 06:39:56;;;;;;;13.48;8.88;;;;;;;;;;5046465;28;20230;-78
2021/03/19 06:42:23;;;;;;;14.73;10.05;;;;;;;;;;5053580;28;20192;-78
2021/03/19 06:45:08;;;;;;;10.45;8.13;;;;;;;;;;5048854;28;20205;-79
2021/03/19 06:47:48;;;;;;;10.82;9.05;;;;;;;;;;5049522;28;20218;-79
2021/03/19 06:50:31;;;;;;;10.48;8.90;;;;;;;;;;5053485;28;20173;-78
2021/03/19 06:53:15;;;;;;;10.05;8.45;;;;;;;;;;5052084;28;20175;-80
2021/03/19 06:55:43;;;;;;;11.27;8.77;;;;;;;;;;5069136;28;20197;-78
2021/03/19 06:58:10;;;;;;;14.05;8.65;;;;;;;;;;5053669;28;20546;-81
2021/03/19 07:00:40;;;;;;;10.07;8.23;;;;;;;;;;5053462;28;20507;-80
2021/03/19 07:03:06;;;;;;;12.55;10.13;;;;;;;;;;5050552;28;20170;-79
2021/03/19 07:05:41;;;;;;;12.48;9.32;;;;;;;;;;5050020;28;20215;-76
2021/03/19 07:08:16;;;;;;;14.20;9.32;;;;;;;;;;5053676;28;20242;-80
2021/03/19 07:11:05;;;;;;;12.25;9.50;;;;;;;;;;5053542;28;20522;-80
2021/03/19 07:13:41;;;;;;;11.02;9.10;;;;;;;;;;5054492;28;20533;-79
2021/03/19 07:16:14;;;;;;;10.70;9.48;;;;;;;;;;5056376;28;20181;-80
2021/03/19 07:18:45;;;;;;;16.90;7.90;;;;;;;;;;5055397;28;20663;-76
2021/03/19 07:21:18;;;;;;;10.48;7.95;;;;;;;;;;5053532;28;20193;-77
2021/03/19 07:23:48;;;;;;;11.00;9.52;;;;;;;;;;5053280;28;20682;-79
2021/03/19 07:26:23;;;;;;;11.63;9.20;;;;;;;;;;5049077;28;20184;-79
2021/03/19 07:28:58;;;;;;;10.90;8.90;;;;;;;;;;5051946;28;20169;-79
2021/03/19 07:31:24;;;;;;;11.38;9.88;;;;;;;;;;5042776;28;20601;-76
2021/03/19 07:34:08;;;;;;;13.15;7.97;;;;;;;;;;5039032;28;20193;-77
2021/03/19 07:36:46;;;;;;;10.30;8.80;;;;;;;;;;5056290;28;20257;-82
2021/03/19 07:39:31;;;;;;;12.70;8.77;;;;;;;;;;5064299;28;20201;-80
2021/03/19 07:41:57;;;;;;;11.82;8.32;;;;;;;;;;5063873;28;20204;-78
2021/03/19 07:44:26;;;;;;;12.48;9.10;;;;;;;;;;5058119;28;20200;-79
2021/03/19 07:47:10;;;;;;;11.60;8.27;;;;;;;;;;5057699;28;20187;-78
2021/03/19 07:50:03;;;;;;;14.25;9.07;;;;;;;;;;5057393;28;20180;-78
2021/03/19 07:52:41;;;;;;;14.35;9.00;;;;;;;;;;5046381;28;20256;-80
2021/03/19 07:55:27;;;;;;;10.82;7.97;;;;;;;;;;5049408;28;20197;-80
2021/03/19 07:58:17;;;;;;;8.48;7.53;;;;;;;;;;5048176;28;20268;-79
2021/03/19 08:00:46;;;;;;;11.35;7.03;;;;;;;;;;5054595;28;20207;-77
2021/03/19 08:03:20;;;;;;;15.55;8.82;;;;;;;;;;5042198;28;21722;-78
2021/03/19 08:05:47;;;;;;;10.85;7.72;;;;;;;;;;5054490;28;20188;-78
2021/03/19 08:08:15;;;;;;;11.15;8.50;;;;;;;;;;5055712;28;20172;-80
2021/03/19 08:11:00;;;;;;;9.15;7.25;;;;;;;;;;5049031;28;20173;-78
2021/03/19 08:13:45;;;;;;;8.25;6.93;;;;;;;;;;5054708;28;20184;-80
2021/03/19 08:16:15;;;;;;;9.95;5.70;;;;;;;;;;5068052;28;20816;-79
2021/03/19 08:18:45;;;;;;;8.77;5.95;;;;;;;;;;5059692;28;20180;-81
2021/03/19 08:21:23;;;;;;;8.93;5.82;;;;;;;;;;5073610;28;20697;-78
2021/03/19 08:24:08;;;;;;;11.10;6.05;;;;;;;;;;5055922;28;20280;-78
2021/03/19 08:26:47;;;;;;;10.45;6.70;;;;;;;;;;5053287;28;20699;-78
2021/03/19 08:29:32;;;;;;;8.32;5.63;;;;;;;;;;5048281;28;20181;-77
2021/03/19 08:32:02;;;;;;;11.60;6.05;;;;;;;;;;5066223;28;20177;-79
2021/03/19 08:34:39;;;;;;;8.75;5.40;;;;;;;;;;5057427;28;20254;-80
2021/03/19 08:37:13;;;;;;;10.55;6.43;;;;;;;;;;5042252;28;20597;-79
2021/03/19 08:39:39;;;;;;;7.78;6.40;;;;;;;;;;5047863;28;20204;-79
2021/03/19 08:42:07;;;;;;;6.47;5.75;;;;;;;;;;5066681;28;20235;-78
2021/03/19 08:44:35;;;;;;;6.25;5.40;;;;;;;;;;5060364;28;20212;-78
2021/03/19 08:47:16;;;;;;;5.90;5.15;;;;;;;;;;5060200;28;20180;-78
2021/03/19 08:49:45;;;;;;;6.68;4.60;;;;;;;;;;5057511;28;20605;-79
2021/03/19 08:52:20;;;;;;;5.60;5.10;;;;;;;;;;5054357;28;20637;-77
2021/03/19 08:54:46;;;;;;;5.50;4.95;;;;;;;;;;5039025;28;20212;-79
2021/03/19 08:57:13;;;;;;;4.88;4.47;;;;;;;;;;5054142;28;20189;-78
2021/03/19 08:59:39;;;;;;;6.10;4.45;;;;;;;;;;5057028;28;20177;-78
2021/03/19 09:02:10;;;;;;;6.13;5.07;;;;;;;;;;5058476;28;20200;-78
2021/03/19 09:04:51;;;;;;;7.28;4.60;;;;;;;;;;5043978;28;20447;-77
2021/03/19 09:07:20;;;;;;;11.43;4.10;;;;;;;;;;5052412;28;20204;-78
2021/03/19 09:09:46;;;;;;;6.07;4.07;;;;;;;;;;5052386;28;20591;-81
2021/03/19 09:12:14;;;;;;;5.15;3.75;;;;;;;;;;5045114;28;20188;-78
2021/03/19 09:14:42;;;;;;;4.05;3.65;;;;;;;;;;5047110;28;20201;-78
2021/03/19 09:17:12;;;;;;;5.47;4.10;;;;;;;;;;5055001;28;20173;-81
2021/03/19 09:19:41;;;;;;;5.05;3.75;;;;;;;;;;5044390;28;20193;-80
2021/03/19 09:22:28;;;;;;;6.70;3.38;;;;;;;;;;5052137;28;20228;-81
2021/03/19 09:25:13;;;;;;;3.38;3.00;;;;;;;;;;5049266;28;20201;-80
2021/03/19 09:27:42;;;;;;;7.03;4.65;;;;;;;;;;5045936;28;20214;-80
2021/03/19 09:30:14;;;;;;;3.42;3.00;;;;;;;;;;5052633;28;20184;-79
2021/03/19 09:32:41;;;;;;;4.40;2.92;;;;;;;;;;5051760;28;20177;-79
2021/03/19 09:35:13;;;;;;;3.10;2.70;;;;;;;;;;5053173;28;20235;-81
2021/03/19 09:37:39;;;;;;;2.85;2.10;;;;;;;;;;5033882;28;20154;-80
2021/03/19 09:40:08;;;;;;;2.75;2.15;;;;;;;;;;5033473;28;20508;-78
2021/03/19 09:42:35;;;;;;;2.45;1.90;;;;;;;;;;5032938;28;20567;-79
2021/03/19 09:45:02;;;;;;;2.50;2.20;;;;;;;;;;5052590;28;20656;-78
2021/03/19 09:47:45;;;;;;;2.25;1.90;;;;;;;;;;5052796;28;20164;-77
2021/03/19 09:50:14;;;;;;;2.70;1.80;;;;;;;;;;5052765;28;20187;-78
2021/03/19 09:52:54;;;;;;;2.50;1.53;;;;;;;;;;5032850;28;20414;-80
2021/03/19 09:55:21;;;;;;;2.77;1.90;;;;;;;;;;5054150;28;20445;-79
2021/03/19 09:57:48;;;;;;;2.40;1.50;;;;;;;;;;5060980;28;20418;-78
2021/03/19 10:00:23;;;;;;;2.97;2.00;;;;;;;;;;5062118;28;20427;-76
2021/03/19 10:02:49;;;;;;;3.37;1.60;;;;;;;;;;5055059;28;20470;-78
2021/03/19 10:05:25;;;;;;;3.03;1.60;;;;;;;;;;5067483;28;20464;-76
2021/03/19 10:07:51;;;;;;;2.10;1.70;;;;;;;;;;5066144;28;20410;-76
2021/03/19 10:10:22;;;;;;;2.47;1.70;;;;;;;;;;5066425;28;20421;-77
2021/03/19 10:12:48;;;;;;;3.13;2.00;;;;;;;;;;5048952;28;20524;-80
2021/03/19 10:15:17;;;;;;;2.43;1.63;;;;;;;;;;5075883;28;20469;-78
2021/03/19 10:17:57;;;;;;;1.97;1.27;;;;;;;;;;5057066;28;20494;-77
2021/03/19 10:20:28;;;;;;;2.30;1.70;;;;;;;;;;5059198;28;20422;-78
2021/03/19 10:23:09;;;;;;;2.20;1.70;;;;;;;;;;5065024;28;20469;-77
2021/03/19 10:25:39;;;;;;;2.70;1.80;;;;;;;;;;5061101;28;20479;-78
2021/03/19 10:28:18;;;;;;;2.70;1.60;;;;;;;;;;5067876;28;20413;-81
2021/03/19 10:30:54;;;;;;;2.05;1.30;;;;;;;;;;5050236;28;20184;-78
2021/03/19 10:33:23;;;;;;;3.78;1.38;;;;;;;;;;5051870;28;20264;-79
2021/03/19 10:35:52;;;;;;;2.00;1.33;;;;;;;;;;5056310;28;20665;-79
2021/03/19 10:38:30;;;;;;;2.10;1.20;;;;;;;;;;5072103;28;20180;-79
2021/03/19 10:41:01;;;;;;;2.35;1.20;;;;;;;;;;5061206;28;20214;-79
2021/03/19 10:43:29;;;;;;;2.30;1.30;;;;;;;;;;5039551;28;20550;-80
2021/03/19 10:45:57;;;;;;;2.20;1.40;;;;;;;;;;5050776;28;20182;-78
2021/03/19 10:48:26;;;;;;;3.23;1.27;;;;;;;;;;5050013;28;20440;-79
2021/03/19 10:50:57;;;;;;;2.20;1.20;;;;;;;;;;5060384;28;20460;-79
2021/03/19 10:53:37;;;;;;;3.00;1.10;;;;;;;;;;5054189;28;20430;-79
2021/03/19 10:56:05;;;;;;;2.30;1.50;;;;;;;;;;5037815;28;20464;-79
2021/03/19 10:58:31;;;;;;;2.47;1.40;;;;;;;;;;5052753;28;20976;-81
2021/03/19 11:00:57;;;;;;;3.07;1.57;;;;;;;;;;5063067;28;20460;-81
2021/03/19 11:03:34;;;;;;;2.10;1.30;;;;;;;;;;5048126;28;20769;-82
2021/03/19 11:06:03;;;;;;;2.73;1.47;;;;;;;;;;5050977;28;20441;-79
2021/03/19 11:08:29;;;;;;;2.17;1.43;;;;;;;;;;5059622;28;20414;-81
2021/03/19 11:10:55;;;;;;;2.83;1.20;;;;;;;;;;5066056;28;20763;-80
2021/03/19 11:13:32;;;;;;;1.83;0.90;;;;;;;;;;5055733;28;20421;-80
2021/03/19 11:16:00;;;;;;;2.25;1.00;;;;;;;;;;5037503;28;20584;-80
2021/03/19 11:18:26;;;;;;;2.20;1.20;;;;;;;;;;5051139;28;20185;-80
2021/03/19 11:20:58;;;;;;;2.10;1.10;;;;;;;;;;5050662;28;20184;-81
2021/03/19 11:23:24;;;;;;;2.50;1.27;;;;;;;;;;5060713;28;20708;-79
2021/03/19 11:25:50;;;;;;;2.87;1.30;;;;;;;;;;5069699;28;20180;-80
2021/03/19 11:28:30;;;;;;;2.17;1.48;;;;;;;;;;5045614;28;20476;-79
2021/03/19 11:31:11;;;;;;;2.85;1.35;;;;;;;;;;5035735;28;20206;-77
2021/03/19 11:33:56;;;;;;;3.30;1.30;;;;;;;;;;5035638;28;20172;-80
2021/03/19 11:36:22;;;;;;;2.80;1.50;;;;;;;;;;5048793;28;20184;-80
2021/03/19 11:38:48;;;;;;;2.88;1.67;;;;;;;;;;5053268;28;20234;-78
2021/03/19 11:41:31;;;;;;;2.75;1.75;;;;;;;;;;5060454;28;20606;-79
2021/03/19 11:43:57;;;;;;;3.38;1.85;;;;;;;;;;5049409;28;20673;-79
2021/03/19 11:46:29;;;;;;;2.47;1.77;;;;;;;;;;5049466;28;20187;-77
2021/03/19 11:48:56;;;;;;;2.63;1.70;;;;;;;;;;5048895;28;20235;-81
2021/03/19 11:51:28;;;;;;;3.97;1.90;;;;;;;;;;5054230;28;20231;-82
2021/03/19 11:53:55;;;;;;;3.20;1.85;;;;;;;;;;5037848;28;20255;-81
2021/03/19 11:56:21;;;;;;;3.40;1.75;;;;;;;;;;5067974;28;20688;-79
2021/03/19 11:58:47;;;;;;;4.95;3.00;;;;;;;;;;5048005;28;20189;-79
2021/03/19 12:01:13;;;;;;;3.10;1.90;;;;;;;;;;5048411;28;20216;-79
2021/03/19 12:03:40;;;;;;;3.90;2.00;;;;;;;;;;5048706;28;20219;-77
2021/03/19 12:06:08;;;;;;;2.63;2.00;;;;;;;;;;5044839;28;20593;-79
2021/03/19 12:08:35;;;;;;;2.70;1.88;;;;;;;;;;5041553;28;20185;-79
2021/03/19 12:11:02;;;;;;;3.40;1.73;;;;;;;;;;5047378;28;20219;-79
2021/03/19 12:13:28;;;;;;;3.20;1.70;;;;;;;;;;5048543;28;20192;-79
2021/03/19 12:15:54;;;;;;;3.08;1.80;;;;;;;;;;5065142;28;20192;-80
2021/03/19 12:18:21;;;;;;;2.35;1.52;;;;;;;;;;5053585;28;20269;-80
2021/03/19 12:20:48;;;;;;;5.43;2.00;;;;;;;;;;5068306;28;20616;-79
2021/03/19 12:23:14;;;;;;;3.58;1.80;;;;;;;;;;5051274;28;20178;-80
2021/03/19 12:25:41;;;;;;;2.70;2.00;;;;;;;;;;5052149;28;20193;-79
2021/03/19 12:28:10;;;;;;;6.25;3.30;;;;;;;;;;5051753;28;20177;-79
2021/03/19 12:30:36;;;;;;;5.00;4.20;;;;;;;;;;5047995;28;20363;-78
2021/03/19 12:33:03;;;;;;;3.88;2.92;;;;;;;;;;5052442;28;20645;-70
2021/03/19 12:35:29;;;;;;;2.97;2.00;;;;;;;;;;5053900;28;20279;-72
2021/03/19 12:37:56;;;;;;;2.97;1.80;;;;;;;;;;5063183;28;20247;-70
2021/03/19 12:40:24;;;;;;;3.50;1.83;;;;;;;;;;5049359;28;20186;-74
2021/03/19 12:42:50;;;;;;;3.10;1.77;;;;;;;;;;5042627;28;20595;-73
2021/03/19 12:45:17;;;;;;;2.75;1.73;;;;;;;;;;5052528;28;20197;-72
2021/03/19 12:47:43;;;;;;;3.58;1.98;;;;;;;;;;5062643;28;20178;-71
2021/03/19 12:50:09;;;;;;;2.27;1.73;;;;;;;;;;5064923;28;20185;-78
2021/03/19 12:52:35;;;;;;;3.50;1.50;;;;;;;;;;5052434;28;20462;-72
2021/03/19 12:55:01;;;;;;;3.30;2.00;;;;;;;;;;5052087;28;20197;-74
2021/03/19 12:57:27;;;;;;;2.70;1.52;;;;;;;;;;5052391;28;20527;-73
2021/03/19 12:59:53;;;;;;;2.47;1.90;;;;;;;;;;5042522;28;20196;-76
2021/03/19 13:02:19;;;;;;;3.53;1.40;;;;;;;;;;5052444;28;20208;-76
2021/03/19 13:04:45;;;;;;;2.42;1.38;;;;;;;;;;5064863;28;20800;-76
2021/03/19 13:07:11;;;;;;;2.13;1.45;;;;;;;;;;5061801;28;20180;-77
2021/03/19 13:09:38;;;;;;;2.65;1.65;;;;;;;;;;5071919;28;20250;-73
2021/03/19 13:12:05;;;;;;;3.35;1.80;;;;;;;;;;5061619;28;20181;-76
2021/03/19 13:14:31;;;;;;;6.00;5.00;;;;;;;;;;5054867;28;20218;-74
2021/03/19 13:17:00;;;;;;;13.05;10.18;;;;;;;;;;5066375;28;20169;-75
2021/03/19 13:19:26;;;;;;;6.60;5.78;;;;;;;;;;5049361;28;20252;-75
2021/03/19 13:21:52;;;;;;;4.00;3.60;;;;;;;;;;5053020;28;20206;-75
2021/03/19 13:24:19;;;;;;;4.55;3.22;;;;;;;;;;5070656;28;20199;-72
2021/03/19 13:26:45;;;;;;;4.00;2.40;;;;;;;;;;5053391;28;20252;-73
2021/03/19 13:29:11;;;;;;;2.70;1.80;;;;;;;;;;5051410;28;20223;-74
2021/03/19 13:31:39;;;;;;;4.55;1.80;;;;;;;;;;5054338;28;20188;-75
2021/03/19 13:34:05;;;;;;;11.90;9.30;;;;;;;;;;5054311;28;20213;-73
2021/03/19 13:36:31;;;;;;;14.18;9.43;;;;;;;;;;5051105;28;20188;-72
2021/03/19 13:38:57;;;;;;;4.90;2.63;;;;;;;;;;5051160;28;20523;-76
2021/03/19 13:41:23;;;;;;;2.50;1.88;;;;;;;;;;5056961;28;20958;-73
2021/03/19 13:43:49;;;;;;;2.72;1.98;;;;;;;;;;5050658;28;20680;-73
2021/03/19 13:46:17;;;;;;;3.30;2.00;;;;;;;;;;5050794;28;20507;-75
2021/03/19 13:48:44;;;;;;;5.18;2.47;;;;;;;;;;5050973;28;20224;-76
2021/03/19 13:51:10;;;;;;;5.15;2.63;;;;;;;;;;5068243;28;20199;-73
2021/03/19 13:53:37;;;;;;;3.28;2.20;;;;;;;;;;5063635;28;20272;-75
2021/03/19 13:56:03;;;;;;;4.57;2.28;;;;;;;;;;5067630;28;20176;-73
2021/03/19 13:58:30;;;;;;;5.20;2.80;;;;;;;;;;5070691;28;20195;-74
2021/03/19 14:00:58;;;;;;;3.35;2.45;;;;;;;;;;5070548;28;20188;-73
2021/03/19 14:03:24;;;;;;;3.00;2.05;;;;;;;;;;5070345;28;20188;-76
2021/03/19 14:05:50;;;;;;;11.40;8.00;;;;;;;;;;5050128;28;20220;-77
2021/03/19 14:08:18;;;;;;;8.05;3.20;;;;;;;;;;5048885;28;20634;-75
2021/03/19 14:10:44;;;;;;;3.35;2.40;;;;;;;;;;5049050;28;20284;-72
2021/03/19 14:13:11;;;;;;;4.03;2.67;;;;;;;;;;5050045;28;20284;-73
2021/03/19 14:15:37;;;;;;;3.58;2.30;;;;;;;;;;5056569;28;20196;-77
2021/03/19 14:18:03;;;;;;;3.95;2.75;;;;;;;;;;5070221;28;20279;-73
2021/03/19 14:20:30;;;;;;;3.28;2.55;;;;;;;;;;5050009;28;20230;-74
2021/03/19 14:22:57;;;;;;;3.92;2.03;;;;;;;;;;5050094;28;20209;-76
2021/03/19 14:25:23;;;;;;;3.08;2.00;;;;;;;;;;5048988;28;20200;-75
2021/03/19 14:27:49;;;;;;;3.97;2.30;;;;;;;;;;5050794;28;20185;-74
2021/03/19 14:30:16;;;;;;;3.65;1.90;;;;;;;;;;5046416;28;20203;-75
2021/03/19 14:32:42;;;;;;;5.22;2.47;;;;;;;;;;5038738;28;20679;-74
2021/03/19 14:35:11;;;;;;;2.88;2.10;;;;;;;;;;5069759;28;20561;-76
2021/03/19 14:37:37;;;;;;;4.00;3.03;;;;;;;;;;5048693;28;20367;-72
2021/03/19 14:40:06;;;;;;;2.47;1.88;;;;;;;;;;5069850;28;20191;-78
2021/03/19 14:42:31;;;;;;;3.80;2.30;;;;;;;;;;5052169;28;20213;-76
2021/03/19 14:44:57;;;;;;;3.23;1.80;;;;;;;;;;5066922;28;20204;-74
2021/03/19 14:47:23;;;;;;;3.20;1.80;;;;;;;;;;5039370;28;20883;-75
2021/03/19 14:49:49;;;;;;;3.88;2.10;;;;;;;;;;5049056;28;20216;-76
2021/03/19 14:52:15;;;;;;;3.75;1.80;;;;;;;;;;5058441;28;20259;-71
2021/03/19 14:54:41;;;;;;;4.35;2.13;;;;;;;;;;5052383;28;20212;-73
2021/03/19 14:57:08;;;;;;;2.35;1.70;;;;;;;;;;5049827;28;20185;-76